Time;durP1;ratioP1;P1;durP2;ratioP2;P2;SDS_P1;SDS_P2;PMS_P1;PMS_P2;Temp;Humidity;BMP_temperature;BMP_pressure;BME280_temperature;BME280_humidity;BME280_pressure;Samples;Min_cycle;Max_cycle;Signal;HPM_P1;HPM_P2
2023/06/25 00:00:55;;;;;;;20.63;13.57;;;;;;;20.09;100.00;101945.03;5083924;28;20032;-70
2023/06/25 00:03:20;;;;;;;18.08;13.27;;;;;;;20.05;100.00;101943.47;5079569;28;20032;-70
2023/06/25 00:05:45;;;;;;;20.40;13.93;;;;;;;20.00;100.00;101936.66;5089529;28;20032;-70
2023/06/25 00:08:11;;;;;;;16.63;13.80;;;;;;;19.86;100.00;101935.50;5086328;28;20024;-71
2023/06/25 00:10:36;;;;;;;19.52;14.55;;;;;;;19.78;100.00;101932.34;5086722;28;20148;-70
2023/06/25 00:13:02;;;;;;;18.92;14.60;;;;;;;19.77;100.00;101929.75;5087840;28;20065;-70
2023/06/25 00:15:27;;;;;;;19.20;14.75;;;;;;;19.78;100.00;101932.34;5085659;28;20144;-70
2023/06/25 00:17:54;;;;;;;20.80;15.15;;;;;;;19.61;100.00;101929.56;5086821;28;20026;-70
2023/06/25 00:20:19;;;;;;;19.88;14.95;;;;;;;19.56;100.00;101934.19;5086338;28;20035;-70
2023/06/25 00:22:45;;;;;;;20.35;15.77;;;;;;;19.48;100.00;101933.66;5087164;28;20032;-70
2023/06/25 00:25:14;;;;;;;21.60;15.60;;;;;;;19.48;100.00;101931.00;5086774;28;20055;-70
2023/06/25 00:27:40;;;;;;;22.55;15.65;;;;;;;19.43;100.00;101933.88;5085554;28;20542;-70
2023/06/25 00:30:07;;;;;;;20.27;15.82;;;;;;;19.39;100.00;101924.31;5087119;28;20052;-70
2023/06/25 00:32:32;;;;;;;20.77;15.82;;;;;;;19.28;100.00;101914.22;5085460;28;20100;-70
2023/06/25 00:34:59;;;;;;;22.30;16.38;;;;;;;19.26;100.00;101915.22;5087174;28;20034;-70
2023/06/25 00:37:24;;;;;;;20.00;16.00;;;;;;;19.29;100.00;101925.66;5087392;28;20060;-70
2023/06/25 00:39:50;;;;;;;21.65;15.38;;;;;;;19.21;100.00;101923.34;5085703;28;20064;-70
2023/06/25 00:42:16;;;;;;;21.90;16.30;;;;;;;19.23;100.00;101923.25;5089449;28;20099;-71
2023/06/25 00:44:45;;;;;;;19.80;16.02;;;;;;;19.28;100.00;101919.50;5083482;28;20071;-70
2023/06/25 00:47:13;;;;;;;19.42;15.57;;;;;;;19.19;100.00;101911.97;5083117;28;20028;-70
2023/06/25 00:49:43;;;;;;;27.00;16.90;;;;;;;19.16;100.00;101910.34;5083429;28;20039;-70
2023/06/25 00:52:10;;;;;;;20.52;15.73;;;;;;;19.14;100.00;101921.91;5074588;28;20078;-70
2023/06/25 00:54:44;;;;;;;21.85;16.08;;;;;;;19.06;100.00;101916.06;5083007;28;20059;-70
2023/06/25 00:57:10;;;;;;;19.98;16.05;;;;;;;19.01;100.00;101910.13;5086288;28;20036;-70
2023/06/25 00:59:39;;;;;;;23.60;16.25;;;;;;;18.98;100.00;101899.69;5084181;28;20484;-70
2023/06/25 01:02:11;;;;;;;20.77;15.35;;;;;;;18.97;100.00;101911.19;5078332;28;20473;-70
2023/06/25 01:04:46;;;;;;;22.00;16.17;;;;;;;18.88;100.00;101907.13;5086112;28;20480;-70
2023/06/25 01:07:17;;;;;;;20.60;15.35;;;;;;;18.81;100.00;101900.38;5083676;28;20396;-70
2023/06/25 01:09:46;;;;;;;21.00;15.27;;;;;;;18.84;100.00;101900.25;5086429;28;20354;-70
2023/06/25 01:12:12;;;;;;;20.88;15.57;;;;;;;18.70;100.00;101896.38;5085180;28;20527;-70
2023/06/25 01:14:38;;;;;;;21.50;16.95;;;;;;;18.64;100.00;101898.41;5085736;28;20103;-70
2023/06/25 01:17:05;;;;;;;22.23;16.67;;;;;;;18.63;100.00;101899.28;5086083;28;20086;-70
2023/06/25 01:19:30;;;;;;;22.23;17.33;;;;;;;18.55;100.00;101873.22;5085309;28;20046;-70
2023/06/25 01:22:02;;;;;;;24.52;18.33;;;;;;;18.59;100.00;101903.00;5070994;28;20035;-70
2023/06/25 01:24:28;;;;;;;22.77;18.33;;;;;;;18.51;100.00;101894.50;5081956;28;20063;-70
2023/06/25 01:27:00;;;;;;;26.08;18.98;;;;;;;18.44;100.00;101886.84;5080321;28;20063;-70
2023/06/25 01:29:27;;;;;;;27.63;19.07;;;;;;;18.48;100.00;101887.59;5080882;28;20503;-70
2023/06/25 01:31:53;;;;;;;24.15;18.98;;;;;;;18.49;100.00;101884.00;5086077;28;20467;-70
2023/06/25 01:34:21;;;;;;;23.52;18.42;;;;;;;18.49;100.00;101882.22;5086074;28;20023;-70
2023/06/25 01:36:51;;;;;;;26.13;18.40;;;;;;;18.52;100.00;101877.75;5084124;28;20511;-70
2023/06/25 01:39:20;;;;;;;25.50;19.05;;;;;;;18.47;100.00;101876.16;5079726;28;20020;-70
2023/06/25 01:41:47;;;;;;;23.88;18.70;;;;;;;18.43;100.00;101879.84;5084267;28;20040;-70
2023/06/25 01:44:26;;;;;;;22.27;18.10;;;;;;;18.43;100.00;101879.84;5086176;28;20024;-70
2023/06/25 01:46:51;;;;;;;21.35;17.65;;;;;;;18.34;100.00;101874.06;5085252;28;20028;-70
2023/06/25 01:49:16;;;;;;;23.75;18.02;;;;;;;18.29;100.00;101863.69;5085051;28;20360;-70
2023/06/25 01:51:42;;;;;;;23.00;18.63;;;;;;;18.28;100.00;101859.34;5085653;28;20032;-70
2023/06/25 01:54:07;;;;;;;21.08;17.45;;;;;;;18.28;100.00;101854.06;5085223;28;20028;-70
2023/06/25 01:56:32;;;;;;;23.52;17.88;;;;;;;18.21;100.00;101829.69;5076600;28;20069;-70
2023/06/25 01:59:01;;;;;;;26.13;17.08;;;;;;;18.29;100.00;101861.06;5081711;28;20020;-70
2023/06/25 02:01:26;;;;;;;22.45;17.48;;;;;;;18.19;100.00;101857.06;5080306;28;20380;-71
2023/06/25 02:03:52;;;;;;;24.52;18.50;;;;;;;18.17;100.00;101850.97;5083080;28;20421;-70
2023/06/25 02:06:17;;;;;;;22.50;16.88;;;;;;;18.09;100.00;101840.72;5084387;28;20078;-70
2023/06/25 02:08:42;;;;;;;24.05;16.92;;;;;;;17.97;100.00;101815.66;5085713;28;20037;-70
2023/06/25 02:11:08;;;;;;;21.85;17.83;;;;;;;18.08;100.00;101843.41;5081663;28;20111;-70
2023/06/25 02:13:34;;;;;;;26.08;18.52;;;;;;;18.08;100.00;101838.97;5082876;28;20031;-70
2023/06/25 02:16:00;;;;;;;21.83;17.77;;;;;;;18.07;100.00;101837.28;5082081;28;20495;-70
2023/06/25 02:18:26;;;;;;;23.40;17.48;;;;;;;18.05;100.00;101841.78;5087112;28;20032;-70
2023/06/25 02:20:51;;;;;;;22.20;17.90;;;;;;;17.91;100.00;101820.31;5081976;28;20022;-70
2023/06/25 02:23:16;;;;;;;21.90;18.10;;;;;;;17.93;100.00;101819.34;5088646;28;20029;-70
2023/06/25 02:25:42;;;;;;;21.98;17.55;;;;;;;17.93;100.00;101818.50;5080924;28;20044;-70
2023/06/25 02:28:07;;;;;;;23.30;17.70;;;;;;;17.89;100.00;101822.19;5086445;28;20067;-70
2023/06/25 02:30:32;;;;;;;21.40;17.85;;;;;;;17.87;100.00;101826.63;5079694;28;20044;-70
2023/06/25 02:32:58;;;;;;;26.27;18.52;;;;;;;17.84;100.00;101821.47;5084745;28;20043;-70
2023/06/25 02:35:23;;;;;;;23.05;18.60;;;;;;;17.85;100.00;101815.28;5084744;28;20025;-70
2023/06/25 02:37:49;;;;;;;21.17;18.13;;;;;;;17.82;100.00;101808.38;5083315;28;20032;-70
2023/06/25 02:40:14;;;;;;;22.17;18.48;;;;;;;17.76;100.00;101809.44;5085013;28;20027;-70
2023/06/25 02:42:39;;;;;;;27.10;20.00;;;;;;;17.72;100.00;101813.09;5084271;28;20043;-70
2023/06/25 02:45:05;;;;;;;25.02;20.67;;;;;;;17.73;100.00;101804.25;5083953;28;20047;-70
2023/06/25 02:47:31;;;;;;;25.40;20.45;;;;;;;17.70;100.00;101799.09;5084609;28;20028;-70
2023/06/25 02:49:56;;;;;;;27.90;21.77;;;;;;;17.63;100.00;101807.31;5084550;28;20025;-70
2023/06/25 02:52:21;;;;;;;26.98;21.00;;;;;;;17.60;100.00;101808.28;5084001;28;20349;-70
2023/06/25 02:54:47;;;;;;;27.23;21.17;;;;;;;17.53;100.00;101805.00;5084356;28;20104;-70
2023/06/25 02:57:12;;;;;;;25.17;21.23;;;;;;;17.57;100.00;101810.16;5083946;28;20040;-70
2023/06/25 02:59:38;;;;;;;25.40;19.85;;;;;;;17.54;100.00;101796.16;5082437;28;20071;-70
2023/06/25 03:02:03;;;;;;;27.63;21.50;;;;;;;17.50;100.00;101807.75;5079667;28;20036;-70
2023/06/25 03:04:28;;;;;;;26.88;21.20;;;;;;;17.44;100.00;101807.97;5084222;28;20035;-70
2023/06/25 03:06:54;;;;;;;24.67;20.50;;;;;;;17.46;100.00;101800.88;5082242;28;20085;-70
2023/06/25 03:09:19;;;;;;;24.95;20.73;;;;;;;17.36;100.00;101788.09;5083258;28;20416;-70
2023/06/25 03:11:44;;;;;;;26.15;22.00;;;;;;;17.40;100.00;101810.81;5084599;28;20044;-70
2023/06/25 03:14:10;;;;;;;26.42;20.88;;;;;;;17.34;100.00;101805.75;5080550;28;20043;-70
2023/06/25 03:16:35;;;;;;;27.98;21.55;;;;;;;17.26;100.00;101795.47;5086534;28;20039;-70
2023/06/25 03:19:01;;;;;;;26.35;21.05;;;;;;;17.34;100.00;101800.47;5075781;28;20067;-70
2023/06/25 03:21:26;;;;;;;23.73;20.25;;;;;;;17.35;100.00;101800.41;5086332;28;20038;-71
2023/06/25 03:23:52;;;;;;;26.35;21.38;;;;;;;17.20;100.00;101770.22;5081045;28;20020;-70
2023/06/25 03:26:17;;;;;;;25.65;21.38;;;;;;;17.27;100.00;101781.41;5087225;28;20036;-70
2023/06/25 03:28:43;;;;;;;26.92;22.00;;;;;;;17.32;100.00;101795.25;5079754;28;20048;-70
2023/06/25 03:31:08;;;;;;;27.02;20.90;;;;;;;17.31;100.00;101802.28;5076727;28;20028;-70
2023/06/25 03:33:33;;;;;;;28.38;21.88;;;;;;;17.27;100.00;101794.56;5088583;28;20077;-70
2023/06/25 03:35:59;;;;;;;29.95;21.98;;;;;;;17.18;100.00;101789.63;5080141;28;20366;-70
2023/06/25 03:38:24;;;;;;;26.85;22.20;;;;;;;17.15;100.00;101795.84;5087639;28;20464;-70
2023/06/25 03:40:49;;;;;;;28.38;22.67;;;;;;;17.20;100.00;101793.94;5081879;28;20443;-70
2023/06/25 03:43:15;;;;;;;26.83;21.67;;;;;;;17.25;100.00;101791.97;5085173;28;20457;-70
2023/06/25 03:45:40;;;;;;;29.55;23.23;;;;;;;17.26;100.00;101791.03;5083456;28;20380;-70
2023/06/25 03:48:05;;;;;;;29.75;24.48;;;;;;;17.28;100.00;101785.75;5083286;28;20089;-70
2023/06/25 03:50:31;;;;;;;28.92;23.48;;;;;;;17.26;100.00;101798.94;5083815;28;20024;-70
2023/06/25 03:52:56;;;;;;;29.85;23.58;;;;;;;17.29;100.00;101788.31;5082556;28;20032;-70
2023/06/25 03:55:21;;;;;;;29.33;25.13;;;;;;;17.29;100.00;101790.09;5082045;28;20532;-70
2023/06/25 03:57:47;;;;;;;32.53;25.75;;;;;;;17.29;100.00;101771.63;5083633;28;20356;-70
2023/06/25 04:00:12;;;;;;;29.50;24.80;;;;;;;17.34;100.00;101777.63;5079279;28;20416;-70
2023/06/25 04:02:38;;;;;;;32.10;26.23;;;;;;;17.44;100.00;101784.25;5082452;28;20028;-70
2023/06/25 04:05:03;;;;;;;32.08;24.73;;;;;;;17.40;100.00;101777.38;5081281;28;20036;-70
2023/06/25 04:07:29;;;;;;;33.30;24.98;;;;;;;17.44;100.00;101786.88;5083392;28;20380;-71
2023/06/25 04:09:54;;;;;;;32.70;25.10;;;;;;;17.44;100.00;101781.63;5081846;28;20578;-70
2023/06/25 04:12:19;;;;;;;30.33;25.35;;;;;;;17.44;100.00;101789.53;5082286;28;20024;-70
2023/06/25 04:14:45;;;;;;;31.77;25.45;;;;;;;17.51;100.00;101777.84;5083507;28;20034;-70
2023/06/25 04:17:10;;;;;;;32.10;25.48;;;;;;;17.51;100.00;101779.63;5080596;28;20020;-70
2023/06/25 04:19:37;;;;;;;34.10;25.92;;;;;;;17.50;100.00;101778.75;5083405;28;20364;-70
2023/06/25 04:22:03;;;;;;;32.85;26.30;;;;;;;17.62;100.00;101781.84;5078742;28;20059;-70
2023/06/25 04:24:28;;;;;;;31.67;26.17;;;;;;;17.66;100.00;101786.09;5080820;28;20072;-70
2023/06/25 04:26:56;;;;;;;30.13;25.85;;;;;;;17.67;100.00;101777.25;5085251;28;20025;-70
2023/06/25 04:29:21;;;;;;;33.45;26.67;;;;;;;17.66;100.00;101778.19;5076868;28;20044;-70
2023/06/25 04:31:47;;;;;;;32.47;26.20;;;;;;;17.74;100.00;101781.38;5081792;28;20027;-70
2023/06/25 04:34:12;;;;;;;33.80;26.55;;;;;;;17.79;100.00;101776.81;5085172;28;20048;-70
2023/06/25 04:36:37;;;;;;;35.53;28.55;;;;;;;17.85;100.00;101781.84;5080744;28;20427;-70
2023/06/25 04:39:03;;;;;;;41.60;29.98;;;;;;;17.91;100.00;101775.47;5086757;28;20415;-70
2023/06/25 04:41:28;;;;;;;40.55;30.13;;;;;;;17.99;100.00;101779.53;5080058;28;20031;-70
2023/06/25 04:43:54;;;;;;;41.25;30.17;;;;;;;18.00;100.00;101781.25;5092222;28;20028;-70
2023/06/25 04:46:19;;;;;;;39.75;31.25;;;;;;;18.06;100.00;101781.94;5082814;28;20115;-70
2023/06/25 04:48:46;;;;;;;41.65;32.35;;;;;;;18.11;100.00;101778.16;5091993;28;20040;-70
2023/06/25 04:51:12;;;;;;;41.05;31.30;;;;;;;18.18;100.00;101781.41;5083886;28;20045;-70
2023/06/25 04:53:37;;;;;;;37.05;29.30;;;;;;;18.17;100.00;101763.88;5082567;28;20097;-71
2023/06/25 04:56:03;;;;;;;39.05;30.67;;;;;;;18.34;100.00;101776.38;5089312;28;20476;-70
2023/06/25 04:58:28;;;;;;;42.53;31.70;;;;;;;18.38;100.00;101776.22;5082514;28;20021;-70
2023/06/25 05:00:56;;;;;;;36.78;29.52;;;;;;;18.48;100.00;101781.97;5087700;28;20380;-70
2023/06/25 05:03:22;;;;;;;38.03;28.77;;;;;;;18.55;100.00;101783.44;5080614;28;20024;-70
2023/06/25 05:05:47;;;;;;;35.45;29.08;;;;;;;18.63;100.00;101776.03;5086865;28;20043;-70
2023/06/25 05:08:12;;;;;;;33.88;28.45;;;;;;;18.71;100.00;101779.22;5085183;28;20024;-70
2023/06/25 05:10:38;;;;;;;38.92;30.08;;;;;;;18.75;100.00;101776.47;5085557;28;20031;-70
2023/06/25 05:13:04;;;;;;;35.67;29.33;;;;;;;18.80;100.00;101775.38;5085512;28;20463;-71
2023/06/25 05:15:29;;;;;;;32.83;28.50;;;;;;;18.84;100.00;101770.81;5083595;28;20028;-70
2023/06/25 05:17:54;;;;;;;31.52;27.02;;;;;;;18.89;100.00;101774.09;5086638;28;20058;-71
2023/06/25 05:20:20;;;;;;;31.05;26.65;;;;;;;18.98;100.00;101773.69;5083495;28;20383;-70
2023/06/25 05:22:45;;;;;;;31.10;26.55;;;;;;;18.99;100.00;101766.63;5085940;28;20040;-70
2023/06/25 05:25:10;;;;;;;28.83;25.63;;;;;;;19.06;100.00;101770.69;5085603;28;20118;-70
2023/06/25 05:27:36;;;;;;;29.45;24.17;;;;;;;19.15;100.00;101775.59;5084332;28;20380;-70
2023/06/25 05:30:01;;;;;;;26.65;23.85;;;;;;;19.18;100.00;101768.38;5082746;28;20491;-70
2023/06/25 05:32:27;;;;;;;27.90;23.83;;;;;;;19.22;100.00;101771.72;5085361;28;20039;-70
2023/06/25 05:34:52;;;;;;;28.67;23.35;;;;;;;19.32;100.00;101769.53;5085689;28;20020;-70
2023/06/25 05:37:17;;;;;;;28.30;24.27;;;;;;;19.24;100.00;101748.75;5086136;28;20024;-70
2023/06/25 05:39:45;;;;;;;26.52;23.67;;;;;;;19.42;100.00;101771.72;5085143;28;20032;-70
2023/06/25 05:42:11;;;;;;;27.50;23.95;;;;;;;19.52;100.00;101773.91;5085133;28;20050;-70
2023/06/25 05:44:36;;;;;;;29.55;23.42;;;;;;;19.59;100.00;101763.00;5085484;28;21819;-70
2023/06/25 05:47:01;;;;;;;25.27;22.58;;;;;;;19.69;100.00;101763.47;5085471;28;20016;-70
2023/06/25 05:49:27;;;;;;;25.05;22.13;;;;;;;19.77;100.00;101760.44;5083964;28;20027;-70
2023/06/25 05:51:52;;;;;;;23.70;20.98;;;;;;;19.83;100.00;101753.06;5083628;28;20040;-70
2023/06/25 05:54:17;;;;;;;21.67;19.40;;;;;;;19.93;100.00;101753.47;5085173;28;20213;-70
2023/06/25 05:56:43;;;;;;;27.70;20.50;;;;;;;20.00;100.00;101754.91;5082801;28;20036;-70
2023/06/25 05:59:08;;;;;;;21.80;18.10;;;;;;;20.05;98.40;101749.41;5084423;28;20024;-70
2023/06/25 06:01:33;;;;;;;23.52;16.88;;;;;;;20.16;95.35;101746.22;5084456;28;20028;-70
2023/06/25 06:03:59;;;;;;;21.60;18.30;;;;;;;20.24;98.67;101754.63;5074197;28;20029;-70
2023/06/25 06:06:24;;;;;;;17.83;15.88;;;;;;;20.30;96.21;101749.03;5087868;28;20031;-71
2023/06/25 06:08:50;;;;;;;19.58;16.02;;;;;;;20.43;93.67;101752.78;5081398;28;20556;-71
2023/06/25 06:11:15;;;;;;;18.95;15.40;;;;;;;20.52;92.48;101751.50;5088466;28;20024;-70
2023/06/25 06:13:43;;;;;;;18.77;14.20;;;;;;;20.61;92.78;101750.19;5081641;28;20024;-70
2023/06/25 06:16:09;;;;;;;18.15;14.10;;;;;;;20.64;91.72;101750.88;5088042;28;20028;-70
2023/06/25 06:18:34;;;;;;;18.27;13.75;;;;;;;20.72;87.89;101750.47;5081609;28;20465;-70
2023/06/25 06:21:02;;;;;;;17.10;13.32;;;;;;;20.79;87.57;101758.00;5087036;28;20032;-70
2023/06/25 06:23:27;;;;;;;15.10;12.43;;;;;;;20.94;84.29;101766.13;5082230;28;20110;-70
2023/06/25 06:25:55;;;;;;;17.20;13.05;;;;;;;20.99;83.11;101757.00;5085278;28;20114;-70
2023/06/25 06:28:21;;;;;;;17.10;12.95;;;;;;;21.08;83.93;101763.59;5085055;28;20115;-70
2023/06/25 06:30:46;;;;;;;14.27;11.27;;;;;;;21.16;83.21;101758.75;5076964;28;20111;-70
2023/06/25 06:33:12;;;;;;;15.73;11.25;;;;;;;21.24;82.69;101764.47;5088316;28;20089;-70
2023/06/25 06:35:37;;;;;;;13.00;11.05;;;;;;;21.34;82.85;101758.69;5083509;28;20036;-70
2023/06/25 06:38:03;;;;;;;12.43;9.98;;;;;;;21.40;86.09;101758.38;5085162;28;20058;-70
2023/06/25 06:40:28;;;;;;;11.55;9.02;;;;;;;21.48;76.99;101757.03;5084766;28;20031;-70
2023/06/25 06:42:53;;;;;;;10.95;8.52;;;;;;;21.55;69.94;101749.59;5076404;28;20564;-70
2023/06/25 06:45:18;;;;;;;11.48;7.90;;;;;;;21.68;70.70;101755.94;5084099;28;20035;-70
2023/06/25 06:47:44;;;;;;;8.98;7.18;;;;;;;21.78;73.09;101748.31;5083540;28;20039;-70
2023/06/25 06:50:12;;;;;;;12.18;7.20;;;;;;;21.85;69.39;101743.53;5082805;28;20024;-70
2023/06/25 06:52:38;;;;;;;10.07;7.20;;;;;;;21.97;69.97;101749.00;5083428;28;20107;-70
2023/06/25 06:55:03;;;;;;;10.02;7.15;;;;;;;22.08;65.34;101750.16;5081828;28;20965;-70
2023/06/25 06:57:28;;;;;;;11.75;6.80;;;;;;;22.09;66.71;101730.63;5084195;28;20036;-71
2023/06/25 06:59:54;;;;;;;7.35;6.28;;;;;;;22.16;62.42;101746.16;5081276;28;20031;-70
2023/06/25 07:02:19;;;;;;;8.52;5.93;;;;;;;22.27;64.41;101742.00;5084773;28;20020;-70
2023/06/25 07:04:45;;;;;;;10.88;6.22;;;;;;;22.33;63.35;101725.72;5082892;28;20379;-70
2023/06/25 07:07:10;;;;;;;9.68;6.50;;;;;;;22.50;61.51;101745.97;5082112;28;20379;-70
2023/06/25 07:09:36;;;;;;;7.60;6.22;;;;;;;22.55;60.79;101744.75;5084095;28;20131;-70
2023/06/25 07:12:01;;;;;;;6.90;5.70;;;;;;;22.60;64.82;101736.53;5081752;28;20040;-71
2023/06/25 07:14:26;;;;;;;9.55;6.45;;;;;;;22.67;62.33;101748.50;5084762;28;20050;-71
2023/06/25 07:16:52;;;;;;;8.43;5.90;;;;;;;22.73;63.88;101747.28;5084604;28;20465;-70
2023/06/25 07:19:17;;;;;;;8.88;6.18;;;;;;;22.76;63.57;101742.63;5081363;28;20040;-70
2023/06/25 07:21:42;;;;;;;7.88;6.20;;;;;;;22.89;59.89;101748.06;5086539;28;20028;-70
2023/06/25 07:24:08;;;;;;;7.95;6.40;;;;;;;22.96;59.66;101741.44;5081001;28;20514;-70
2023/06/25 07:26:33;;;;;;;7.78;6.60;;;;;;;23.04;60.08;101741.81;5086772;28;20039;-70
2023/06/25 07:28:58;;;;;;;9.45;6.47;;;;;;;23.09;59.11;101729.09;5080744;28;20098;-70
2023/06/25 07:31:24;;;;;;;6.20;5.60;;;;;;;23.16;63.92;101734.88;5080633;28;20549;-71
2023/06/25 07:33:49;;;;;;;7.65;6.32;;;;;;;23.31;61.61;101733.06;5088302;28;20028;-70
2023/06/25 07:36:16;;;;;;;13.68;6.82;;;;;;;23.35;59.77;101731.94;5080843;28;20051;-70
2023/06/25 07:38:41;;;;;;;10.50;7.00;;;;;;;23.47;60.41;101733.78;5081787;28;20029;-70
2023/06/25 07:41:06;;;;;;;9.55;6.85;;;;;;;23.51;58.57;101742.44;5083712;28;20059;-70
2023/06/25 07:43:32;;;;;;;8.32;6.88;;;;;;;23.53;60.16;101729.91;5080510;28;20020;-71
2023/06/25 07:45:57;;;;;;;12.27;7.13;;;;;;;23.51;58.54;101719.38;5086642;28;20384;-70
2023/06/25 07:48:22;;;;;;;10.75;7.07;;;;;;;23.70;59.64;101739.47;5079805;28;20376;-71
2023/06/25 07:50:48;;;;;;;9.20;6.57;;;;;;;23.73;60.62;101724.16;5086743;28;20032;-71
2023/06/25 07:53:13;;;;;;;10.43;7.90;;;;;;;23.80;58.25;101720.16;5080673;28;20417;-70
2023/06/25 07:55:41;;;;;;;7.70;6.85;;;;;;;23.90;59.78;101723.06;5084643;28;20444;-70
2023/06/25 07:58:07;;;;;;;8.85;7.53;;;;;;;24.00;57.04;101726.84;5080821;28;20038;-71
2023/06/25 08:00:39;;;;;;;9.65;6.68;;;;;;;24.09;59.32;101721.84;5072983;28;20100;-71
2023/06/25 08:03:04;;;;;;;10.13;6.05;;;;;;;24.16;58.79;101716.00;5081357;28;20111;-71
2023/06/25 08:05:29;;;;;;;7.78;6.60;;;;;;;24.25;60.28;101720.72;5083164;28;20119;-71
2023/06/25 08:07:56;;;;;;;8.48;6.30;;;;;;;24.36;57.33;101720.03;5083935;28;20067;-71
2023/06/25 08:10:23;;;;;;;7.00;6.30;;;;;;;24.39;61.02;101729.59;5081287;28;20081;-71
2023/06/25 08:12:48;;;;;;;6.68;5.97;;;;;;;24.49;57.74;101718.25;5083859;28;20028;-74
2023/06/25 08:15:14;;;;;;;7.43;6.00;;;;;;;24.59;59.67;101713.16;5081438;28;20538;-76
2023/06/25 08:17:39;;;;;;;9.43;6.13;;;;;;;24.74;60.65;101722.72;5082784;28;20025;-75
2023/06/25 08:20:05;;;;;;;7.35;5.90;;;;;;;24.77;61.79;101719.84;5084147;28;20360;-75
2023/06/25 08:22:30;;;;;;;14.65;6.10;;;;;;;24.77;58.20;101703.00;5085398;28;20020;-78
2023/06/25 08:24:55;;;;;;;7.38;6.00;;;;;;;24.92;59.03;101717.94;5080566;28;20050;-70
2023/06/25 08:27:20;;;;;;;7.32;5.50;;;;;;;25.00;59.04;101717.41;5085890;28;20028;-70
2023/06/25 08:29:46;;;;;;;8.55;5.82;;;;;;;25.10;58.77;101707.78;5083142;28;20062;-70
2023/06/25 08:32:11;;;;;;;8.25;5.75;;;;;;;25.17;60.50;101710.88;5087459;28;20111;-71
2023/06/25 08:34:37;;;;;;;8.63;5.85;;;;;;;25.12;56.13;101695.22;5087002;28;20021;-71
2023/06/25 08:37:03;;;;;;;6.93;5.82;;;;;;;25.30;57.16;101703.72;5086783;28;20024;-71
2023/06/25 08:39:29;;;;;;;10.10;5.50;;;;;;;25.42;61.58;101699.31;5086914;28;20032;-70
2023/06/25 08:41:54;;;;;;;6.25;5.65;;;;;;;25.53;58.77;101703.84;5081342;28;20028;-71
2023/06/25 08:44:19;;;;;;;7.80;6.05;;;;;;;25.70;55.24;101703.47;5086179;28;20028;-70
2023/06/25 08:46:49;;;;;;;9.85;5.78;;;;;;;25.75;57.94;101704.00;5084471;28;20426;-70
2023/06/25 08:49:16;;;;;;;8.07;5.80;;;;;;;25.85;55.95;101686.34;5087036;28;20047;-71
2023/06/25 08:51:41;;;;;;;7.75;5.60;;;;;;;26.01;55.57;101694.06;5083614;28;20058;-71
2023/06/25 08:54:07;;;;;;;6.55;5.68;;;;;;;26.17;58.24;101695.59;5086489;28;20020;-70
2023/06/25 08:56:36;;;;;;;6.15;5.07;;;;;;;26.25;55.60;101694.00;5086460;28;20029;-70
2023/06/25 08:59:01;;;;;;;7.70;6.10;;;;;;;26.41;51.45;101690.16;5084426;28;20032;-70
2023/06/25 09:01:27;;;;;;;8.23;5.70;;;;;;;26.44;54.55;101693.47;5075970;28;20035;-71
2023/06/25 09:03:53;;;;;;;6.10;5.50;;;;;;;26.53;50.64;101690.13;5084715;28;20060;-71
2023/06/25 09:06:18;;;;;;;6.93;6.05;;;;;;;26.63;53.90;101690.25;5089118;28;20049;-70
2023/06/25 09:08:44;;;;;;;7.28;5.72;;;;;;;26.69;52.38;101689.78;5077655;28;20048;-70
2023/06/25 09:11:11;;;;;;;6.75;5.18;;;;;;;26.84;50.93;101688.53;5087712;28;20418;-71
2023/06/25 09:13:37;;;;;;;8.35;5.57;;;;;;;27.04;51.70;101689.66;5082339;28;20274;-71
2023/06/25 09:16:05;;;;;;;6.40;5.47;;;;;;;27.13;50.93;101693.44;5081823;28;20040;-70
2023/06/25 09:18:31;;;;;;;6.50;5.75;;;;;;;27.15;50.00;101683.47;5086754;28;20025;-70
2023/06/25 09:21:08;;;;;;;5.93;5.32;;;;;;;27.21;50.01;101679.47;5088016;28;20029;-70
2023/06/25 09:23:33;;;;;;;7.55;5.72;;;;;;;27.29;49.34;101672.50;5083372;28;20032;-70
2023/06/25 09:26:05;;;;;;;6.43;5.78;;;;;;;27.44;49.65;101665.06;5087268;28;20470;-70
2023/06/25 09:28:30;;;;;;;5.85;5.25;;;;;;;27.59;50.65;101679.00;5083426;28;20107;-70
2023/06/25 09:30:58;;;;;;;7.25;5.22;;;;;;;27.65;45.76;101674.97;5076372;28;20074;-71
2023/06/25 09:33:32;;;;;;;5.53;4.97;;;;;;;27.67;45.36;101668.50;5082269;28;20024;-71
2023/06/25 09:36:03;;;;;;;8.20;5.70;;;;;;;27.67;46.16;101671.19;5086787;28;20040;-71
2023/06/25 09:38:30;;;;;;;6.80;5.40;;;;;;;27.70;47.69;101670.94;5082763;28;20411;-71
2023/06/25 09:40:58;;;;;;;7.20;5.55;;;;;;;27.79;49.61;101677.38;5076478;28;20021;-70
2023/06/25 09:43:25;;;;;;;6.60;5.38;;;;;;;27.78;44.98;101675.69;5082464;28;20456;-70
2023/06/25 09:45:52;;;;;;;7.55;5.32;;;;;;;27.91;44.13;101672.81;5088540;28;20483;-70
2023/06/25 09:48:22;;;;;;;5.85;5.35;;;;;;;27.99;45.77;101670.34;5081775;28;20537;-71
2023/06/25 09:50:49;;;;;;;9.00;5.28;;;;;;;28.09;45.80;101665.94;5088598;28;20567;-70
2023/06/25 09:53:21;;;;;;;5.85;5.15;;;;;;;28.28;47.35;101650.94;5073862;28;20104;-71
2023/06/25 09:55:46;;;;;;;5.72;5.13;;;;;;;28.27;46.47;101649.25;5084843;28;20035;-71
2023/06/25 09:58:12;;;;;;;6.05;5.45;;;;;;;28.40;46.22;101657.97;5082152;28;20028;-71
2023/06/25 10:00:40;;;;;;;5.68;5.00;;;;;;;28.57;46.95;101661.88;5076477;28;20036;-70
2023/06/25 10:03:06;;;;;;;8.52;6.00;;;;;;;28.58;45.40;101656.38;5084068;28;20089;-71
2023/06/25 10:05:32;;;;;;;5.75;5.25;;;;;;;28.60;42.73;101659.75;5085081;28;20042;-71
2023/06/25 10:07:58;;;;;;;7.22;5.93;;;;;;;28.65;43.83;101660.22;5084596;28;20467;-70
2023/06/25 10:10:27;;;;;;;5.85;5.35;;;;;;;28.74;43.80;101657.69;5083735;28;20031;-71
2023/06/25 10:12:55;;;;;;;6.88;5.28;;;;;;;28.73;43.88;101642.59;5085354;28;20036;-71
2023/06/25 10:15:28;;;;;;;6.03;5.43;;;;;;;28.90;44.04;101650.84;5082809;28;20081;-71
2023/06/25 10:17:53;;;;;;;6.25;5.13;;;;;;;28.89;41.56;101645.63;5085506;28;20031;-71
2023/06/25 10:20:30;;;;;;;5.68;5.07;;;;;;;28.94;43.92;101641.56;5083815;28;20371;-71
2023/06/25 10:23:12;;;;;;;5.82;5.20;;;;;;;29.03;43.20;101639.06;5084284;28;20543;-71
2023/06/25 10:25:40;;;;;;;5.43;4.93;;;;;;;29.17;41.69;101642.22;5083093;28;20476;-71
2023/06/25 10:28:13;;;;;;;7.47;5.60;;;;;;;29.39;42.40;101637.56;5084920;28;20055;-71
2023/06/25 10:30:47;;;;;;;5.85;5.30;;;;;;;29.32;44.05;101623.00;5078197;28;20032;-71
2023/06/25 10:33:18;;;;;;;5.40;4.90;;;;;;;29.49;41.33;101633.06;5076926;28;20030;-70
2023/06/25 10:35:47;;;;;;;6.07;5.27;;;;;;;29.57;44.43;101638.59;5087035;28;20529;-71
2023/06/25 10:38:13;;;;;;;5.30;4.80;;;;;;;29.74;40.96;101634.38;5075310;28;20487;-70
2023/06/25 10:40:40;;;;;;;6.32;4.95;;;;;;;29.88;41.34;101621.50;5087079;28;20032;-71
2023/06/25 10:43:06;;;;;;;6.95;5.03;;;;;;;29.88;39.04;101624.19;5081097;28;20016;-70
2023/06/25 10:45:32;;;;;;;6.10;5.30;;;;;;;29.86;39.61;101616.28;5086576;28;20024;-70
2023/06/25 10:48:11;;;;;;;6.03;5.20;;;;;;;29.95;40.37;101620.75;5082265;28;20142;-70
2023/06/25 10:50:37;;;;;;;7.63;5.20;;;;;;;29.93;43.37;101625.47;5086054;28;20062;-71
2023/06/25 10:53:07;;;;;;;5.40;4.90;;;;;;;29.99;38.01;101615.97;5081913;28;20032;-70
2023/06/25 10:55:33;;;;;;;7.30;5.40;;;;;;;30.02;36.38;101610.28;5085516;28;20028;-71
2023/06/25 10:58:01;;;;;;;5.28;4.60;;;;;;;30.16;38.30;101614.38;5081985;28;20161;-71
2023/06/25 11:00:27;;;;;;;5.95;4.60;;;;;;;30.20;38.27;101613.13;5077365;28;20029;-71
2023/06/25 11:02:54;;;;;;;6.10;5.07;;;;;;;30.22;39.12;101612.00;5081332;28;20031;-70
2023/06/25 11:05:21;;;;;;;5.80;5.07;;;;;;;30.23;36.61;101597.53;5080935;28;20035;-70
2023/06/25 11:07:53;;;;;;;7.00;5.45;;;;;;;30.36;38.87;101604.44;5084335;28;20055;-70